createdAt,value
2022-07-30T00:01:53.218Z,100214.50
2022-07-30T00:04:23.643Z,100212.06
2022-07-30T00:06:54.136Z,100212.88
2022-07-30T00:09:24.731Z,100212.88
2022-07-30T00:11:55.356Z,100219.66
2022-07-30T00:14:25.640Z,100209.09
2022-07-30T00:16:56.971Z,100214.81
2022-07-30T00:19:27.361Z,100210.19
2022-07-30T00:21:57.776Z,100215.91
2022-07-30T00:24:28.622Z,100218.34
2022-07-30T00:26:59.662Z,100216.19
2022-07-30T00:29:30.343Z,100222.72
2022-07-30T00:32:00.840Z,100226.25
2022-07-30T00:34:31.585Z,100234.94
2022-07-30T00:37:02.841Z,100227.13
2022-07-30T00:39:33.770Z,100227.41
2022-07-30T00:42:06.524Z,100225.25
2022-07-30T00:44:37.020Z,100226.66
2022-07-30T00:47:11.600Z,100227.47
2022-07-30T00:49:44.271Z,100229.09
2022-07-30T00:52:15.506Z,100224.28
2022-07-30T00:54:46.340Z,100221.56
2022-07-30T00:57:17.142Z,100214.00
2022-07-30T00:59:47.729Z,100207.78
2022-07-30T01:02:18.510Z,100204.81
2022-07-30T01:04:49.743Z,100202.66
2022-07-30T01:07:24.085Z,100206.72
2022-07-30T01:09:57.782Z,100205.91
2022-07-30T01:12:29.365Z,100194.28
2022-07-30T01:15:01.789Z,100198.91
2022-07-30T01:17:32.734Z,100207.03
2022-07-30T01:20:08.452Z,100212.44
2022-07-30T01:22:50.985Z,100214.38
2022-07-30T01:25:33.618Z,100214.94
2022-07-30T01:28:18.430Z,100216.31
2022-07-30T01:30:50.612Z,100212.50
2022-07-30T01:33:22.996Z,100210.34
2022-07-30T01:35:56.391Z,100213.88
2022-07-30T01:38:31.261Z,100207.66
2022-07-30T01:41:08.209Z,100201.66
2022-07-30T01:43:41.493Z,100190.53
2022-07-30T01:46:14.371Z,100188.38
2022-07-30T01:48:47.760Z,100190.28
2022-07-30T01:51:22.683Z,100186.16
2022-07-30T01:53:55.802Z,100179.38
2022-07-30T01:56:28.072Z,100183.41
2022-07-30T01:59:01.250Z,100192.31
2022-07-30T02:01:35.944Z,100187.94
2022-07-30T02:04:07.512Z,100183.59
2022-07-30T02:06:59.715Z,100180.34
2022-07-30T02:09:39.534Z,100177.59
2022-07-30T02:12:30.666Z,100178.16
2022-07-30T02:15:16.960Z,100181.66
2022-07-30T02:18:12.993Z,100177.81
2022-07-30T02:20:49.613Z,100169.91
2022-07-30T02:23:21.635Z,100177.47
2022-07-30T02:25:55.156Z,100178.53
2022-07-30T02:28:27.434Z,100181.25
2022-07-30T02:31:02.907Z,100175.53
2022-07-30T02:33:52.807Z,100169.53
2022-07-30T02:36:26.034Z,100169.53
2022-07-30T02:38:58.653Z,100168.16
2022-07-30T02:41:33.962Z,100151.09
2022-07-30T02:44:05.760Z,100162.56
2022-07-30T02:46:43.156Z,100156.84
2022-07-30T02:49:33.905Z,100157.13
2022-07-30T02:52:06.942Z,100160.38
2022-07-30T02:54:41.635Z,100156.56
2022-07-30T02:57:14.887Z,100143.25
2022-07-30T02:59:47.014Z,100142.72
2022-07-30T03:02:29.484Z,100144.09
2022-07-30T03:05:26.042Z,100138.38
2022-07-30T03:08:07.131Z,100137.78
2022-07-30T03:11:16.869Z,100134.75
2022-07-30T03:17:21.578Z,100135.47
2022-07-30T03:20:37.356Z,100141.94
2022-07-30T03:24:00.300Z,100125.03
2022-07-30T03:26:23.854Z,100122.22
2022-07-30T03:29:09.738Z,100121.06
2022-07-30T03:32:09.018Z,100121.03
2022-07-30T03:38:07.762Z,100115.78
2022-07-30T03:41:15.397Z,100110.56
2022-07-30T03:43:52.594Z,100111.34
2022-07-30T03:46:24.734Z,100110.47
2022-07-30T03:48:57.068Z,100107.97
2022-07-30T03:51:32.894Z,100106.03
2022-07-30T03:54:13.394Z,100105.97
2022-07-30T03:56:45.158Z,100104.84
2022-07-30T03:59:30.203Z,100093.38
2022-07-30T04:02:07.355Z,100091.69
2022-07-30T04:04:56.796Z,100091.13
2022-07-30T04:07:34.082Z,100089.41
2022-07-30T04:10:15.931Z,100086.69
2022-07-30T04:13:10.733Z,100086.13
2022-07-30T04:16:37.717Z,100075.53
2022-07-30T04:18:50.803Z,100079.34
2022-07-30T04:21:25.214Z,100074.44
2022-07-30T04:24:08.189Z,100066.19
2022-07-30T04:26:46.185Z,100075.13
2022-07-30T04:29:24.291Z,100054.66
2022-07-30T04:31:58.744Z,100063.56
2022-07-30T04:35:07.788Z,100056.44
2022-07-30T04:38:14.239Z,100056.94
2022-07-30T04:40:58.075Z,100056.34
2022-07-30T04:43:34.121Z,100045.56
2022-07-30T04:46:05.302Z,100043.88
2022-07-30T04:48:39.010Z,100040.88
2022-07-30T04:51:22.140Z,100038.66
2022-07-30T04:53:58.171Z,100036.72
2022-07-30T04:56:38.915Z,100035.94
2022-07-30T04:59:26.943Z,100037.53
2022-07-30T05:02:20.570Z,100037.03
2022-07-30T05:05:05.248Z,100032.69
2022-07-30T05:07:49.537Z,100032.09
2022-07-30T05:10:38.770Z,100030.41
2022-07-30T05:13:16.227Z,100034.16
2022-07-30T05:15:51.039Z,100031.63
2022-07-30T05:18:46.273Z,100029.41
2022-07-30T05:21:35.501Z,100028.13
2022-07-30T05:24:33.043Z,100022.66
2022-07-30T05:30:07.039Z,100020.16
2022-07-30T05:32:47.519Z,100016.84
2022-07-30T05:35:21.764Z,100010.78
2022-07-30T05:37:52.979Z,100003.53
2022-07-30T05:40:24.056Z,100004.53
2022-07-30T05:43:06.498Z,99998.50
2022-07-30T05:45:40.182Z,99993.56
2022-07-30T05:48:11.603Z,99984.78
2022-07-30T05:50:48.471Z,99990.69
2022-07-30T05:53:23.373Z,99973.75
2022-07-30T05:56:22.314Z,99981.81
2022-07-30T05:59:10.815Z,99980.69
2022-07-30T06:02:13.527Z,99985.06
2022-07-30T06:05:00.505Z,99982.03
2022-07-30T06:10:29.127Z,99982.75
2022-07-30T06:13:01.194Z,99977.50
2022-07-30T06:15:42.135Z,99982.34
2022-07-30T06:18:18.144Z,99978.69
2022-07-30T06:21:02.229Z,99973.75
2022-07-30T06:24:13.109Z,99986.78
2022-07-30T06:27:44.778Z,99972.16
2022-07-30T06:30:50.889Z,99981.41
2022-07-30T06:33:41.118Z,99977.59
2022-07-30T06:36:15.071Z,99970.72
2022-07-30T06:39:07.898Z,99965.97
2022-07-30T06:42:14.666Z,99962.53
2022-07-30T06:48:51.660Z,99967.28
2022-07-30T06:51:30.827Z,99964.28
2022-07-30T06:54:07.425Z,99962.94
2022-07-30T06:56:41.162Z,99965.38
2022-07-30T06:59:26.775Z,99956.63
2022-07-30T07:02:21.389Z,99948.72
2022-07-30T07:08:25.854Z,99954.16
2022-07-30T07:14:25.645Z,99949.25
2022-07-30T07:20:19.144Z,99945.00
2022-07-30T07:23:49.746Z,99938.53
2022-07-30T07:39:31.496Z,99918.31
2022-07-30T07:42:23.082Z,99920.09
2022-07-30T07:49:09.794Z,99923.13
2022-07-30T07:55:59.836Z,99925.66
2022-07-30T08:06:00.812Z,99932.94
2022-07-30T08:09:09.484Z,99930.13
2022-07-30T08:15:28.267Z,99924.69
2022-07-30T08:18:22.336Z,99923.28
2022-07-30T08:21:16.939Z,99918.81
2022-07-30T08:23:48.498Z,99920.44
2022-07-30T08:26:19.708Z,99910.66
2022-07-30T08:28:56.944Z,99899.25
2022-07-30T08:31:33.773Z,99901.38
2022-07-30T08:34:08.410Z,99903.47
2022-07-30T08:36:46.571Z,99898.00
2022-07-30T08:42:44.224Z,99885.13
2022-07-30T08:45:34.828Z,99893.00
2022-07-30T08:48:36.315Z,99892.19
2022-07-30T08:51:08.201Z,99894.19
2022-07-30T08:53:54.631Z,99911.75
2022-07-30T08:56:59.928Z,99900.56
2022-07-30T09:00:28.014Z,99898.84
2022-07-30T09:18:45.809Z,99881.88
2022-07-30T09:21:25.917Z,99878.97
2022-07-30T09:24:57.025Z,99879.25
2022-07-30T09:28:03.554Z,99874.31
2022-07-30T09:44:56.530Z,99860.47
2022-07-30T09:47:40.619Z,99875.03
2022-07-30T09:50:29.586Z,99869.88
2022-07-30T09:53:12.031Z,99872.63
2022-07-30T09:55:46.469Z,99878.47
2022-07-30T09:58:27.274Z,99871.53
2022-07-30T10:01:06.298Z,99871.63
2022-07-30T10:04:14.703Z,99872.84
2022-07-30T10:07:01.167Z,99881.63
2022-07-30T10:09:49.833Z,99881.94
2022-07-30T10:12:24.848Z,99893.69
2022-07-30T10:14:57.926Z,99888.13
2022-07-30T10:17:28.817Z,99896.41
2022-07-30T10:20:22.022Z,99893.78
2022-07-30T10:23:15.523Z,99896.91
2022-07-30T10:29:55.240Z,99904.25
2022-07-30T10:32:52.583Z,99902.72
2022-07-30T10:39:17.922Z,99918.91
2022-07-30T10:43:19.164Z,99913.81
2022-07-30T10:49:22.842Z,99908.53
2022-07-30T10:51:56.712Z,99902.09
2022-07-30T10:54:47.054Z,99907.03
2022-07-30T10:57:22.556Z,99900.03
2022-07-30T11:00:04.046Z,99897.94
2022-07-30T11:02:36.677Z,99893.66
2022-07-30T11:08:36.978Z,99894.31
2022-07-30T11:12:01.401Z,99891.69
2022-07-30T11:14:22.566Z,99896.38
2022-07-30T11:16:54.564Z,99893.44
2022-07-30T11:19:55.752Z,99880.72
2022-07-30T11:22:26.975Z,99885.94
2022-07-30T11:24:58.065Z,99891.44
2022-07-30T11:27:48.522Z,99893.66
2022-07-30T11:30:20.092Z,99899.94
2022-07-30T11:32:51.706Z,99902.75
2022-07-30T11:35:34.323Z,99904.16
2022-07-30T11:38:13.704Z,99912.03
2022-07-30T11:40:53.357Z,99911.31
2022-07-30T11:43:40.903Z,99914.91
2022-07-30T11:46:29.282Z,99904.91
2022-07-30T11:49:04.379Z,99910.13
2022-07-30T11:51:45.872Z,99904.47
2022-07-30T11:54:17.013Z,99909.94
2022-07-30T11:56:55.639Z,99906.44
2022-07-30T11:59:26.284Z,99908.38
2022-07-30T12:02:03.145Z,99918.97
2022-07-30T12:04:33.899Z,99922.28
2022-07-30T12:07:04.716Z,99920.44
2022-07-30T12:09:37.839Z,99923.44
2022-07-30T12:12:27.026Z,99934.56
2022-07-30T12:15:06.686Z,99934.63
2022-07-30T12:18:00.784Z,99941.47
2022-07-30T12:20:51.549Z,99934.72
2022-07-30T12:23:33.338Z,99948.03
2022-07-30T12:26:04.665Z,99962.47
2022-07-30T12:28:38.109Z,99966.84
2022-07-30T12:31:08.800Z,99974.75
2022-07-30T12:33:42.343Z,99972.34
2022-07-30T12:36:25.607Z,99970.19
2022-07-30T12:38:59.571Z,99981.59
2022-07-30T12:41:59.576Z,99980.28
2022-07-30T12:44:46.467Z,99988.19
2022-07-30T12:47:32.402Z,99995.78
2022-07-30T12:50:07.813Z,100000.69
2022-07-30T12:52:43.085Z,99997.97
2022-07-30T12:55:14.172Z,100006.09
2022-07-30T12:58:09.251Z,100004.78
2022-07-30T13:00:56.997Z,100020.25
2022-07-30T13:03:44.114Z,100011.88
2022-07-30T13:06:22.679Z,100014.59
2022-07-30T13:09:01.533Z,100010.25
2022-07-30T13:11:49.217Z,100017.88
2022-07-30T13:14:26.556Z,100017.63
2022-07-30T13:17:02.718Z,100038.47
2022-07-30T13:19:38.245Z,100035.78
2022-07-30T13:22:17.224Z,100033.38
2022-07-30T13:24:48.251Z,100041.50
2022-07-30T13:27:27.656Z,100046.09
2022-07-30T13:30:08.094Z,100050.72
2022-07-30T13:32:40.693Z,100042.06
2022-07-30T13:35:12.000Z,100052.09
2022-07-30T13:37:48.549Z,100041.53
2022-07-30T13:40:25.361Z,100032.56
2022-07-30T13:42:57.275Z,100042.63
2022-07-30T13:45:27.971Z,100033.69
2022-07-30T13:48:04.681Z,100040.97
2022-07-30T13:50:44.532Z,100035.03
2022-07-30T13:53:25.596Z,100036.13
2022-07-30T13:55:56.674Z,100050.78
2022-07-30T13:58:42.079Z,100044.31
2022-07-30T14:01:17.665Z,100058.38
2022-07-30T14:04:02.723Z,100059.47
2022-07-30T14:12:57.878Z,100038.91
2022-07-30T14:16:02.213Z,100048.94
2022-07-30T14:19:42.229Z,100048.38
2022-07-30T14:22:39.736Z,100044.91
2022-07-30T14:26:02.209Z,100052.22
2022-07-30T14:35:30.071Z,100047.63
2022-07-30T14:38:17.165Z,100053.63
2022-07-30T14:40:48.541Z,100047.91
2022-07-30T14:48:12.174Z,100049.84
2022-07-30T14:51:13.382Z,100061.78
2022-07-30T14:53:51.568Z,100055.28
2022-07-30T15:00:52.257Z,100050.69
2022-07-30T15:03:10.360Z,100043.06
2022-07-30T15:05:58.670Z,100046.59
2022-07-30T15:09:13.483Z,100038.72
2022-07-30T15:13:23.518Z,100030.88
2022-07-30T15:15:17.089Z,100039.28
2022-07-30T15:18:39.084Z,100040.66
2022-07-30T15:21:31.310Z,100031.47
2022-07-30T15:24:16.528Z,100035.78
2022-07-30T15:26:59.594Z,100026.31
2022-07-30T15:29:45.743Z,100023.59
2022-07-30T15:32:18.527Z,100019.00
2022-07-30T15:34:49.243Z,100031.22
2022-07-30T15:38:13.691Z,100023.06
2022-07-30T15:40:47.034Z,100012.78
2022-07-30T15:43:21.216Z,100015.75
2022-07-30T15:45:55.886Z,100018.75
2022-07-30T15:48:45.201Z,100018.22
2022-07-30T15:51:37.319Z,100007.38
2022-07-30T15:54:23.965Z,99992.78
2022-07-30T15:57:21.927Z,100007.66
2022-07-30T15:59:59.840Z,99997.94
2022-07-30T16:02:31.331Z,99994.66
2022-07-30T16:05:02.223Z,99996.84
2022-07-30T16:07:36.314Z,99999.81
2022-07-30T16:10:08.258Z,99999.03
2022-07-30T16:13:29.607Z,99999.03
2022-07-30T16:19:45.096Z,99996.84
2022-07-30T16:23:54.353Z,100001.19
2022-07-30T16:26:13.708Z,99994.16
2022-07-30T16:32:30.392Z,99987.13
2022-07-30T16:35:24.663Z,99992.53
2022-07-30T16:38:09.029Z,100002.84
2022-07-30T16:40:40.264Z,99974.41
2022-07-30T16:43:13.130Z,99974.13
2022-07-30T16:46:35.344Z,99974.94
2022-07-30T16:49:55.630Z,99969.78
2022-07-30T16:53:13.776Z,99961.13
2022-07-30T16:55:52.662Z,99946.78
2022-07-30T16:58:32.907Z,99947.06
2022-07-30T17:01:03.613Z,99950.84
2022-07-30T17:03:37.375Z,99958.97
2022-07-30T17:06:08.114Z,99970.09
2022-07-30T17:08:38.653Z,99961.16
2022-07-30T17:11:11.702Z,99959.00
2022-07-30T17:14:01.250Z,99956.31
2022-07-30T17:16:32.139Z,99967.41
2022-07-30T17:19:08.178Z,99969.84
2022-07-30T17:21:39.804Z,99968.22
2022-07-30T17:24:15.009Z,99962.25
2022-07-30T17:26:46.623Z,99956.31
2022-07-30T17:29:18.602Z,99955.22
2022-07-30T17:31:49.743Z,99958.19
2022-07-30T17:34:24.772Z,99950.91
2022-07-30T17:36:55.054Z,99942.50
2022-07-30T17:40:28.175Z,99946.03
2022-07-30T17:42:17.016Z,99953.06
2022-07-30T17:44:47.865Z,99945.19
2022-07-30T17:47:18.688Z,99949.50
2022-07-30T17:49:50.805Z,99957.09
2022-07-30T17:52:26.428Z,99954.94
2022-07-30T17:55:00.893Z,99954.13
2022-07-30T17:57:33.443Z,99956.31
2022-07-30T18:00:04.682Z,99956.31
2022-07-30T18:02:38.172Z,99962.53
2022-07-30T18:05:12.020Z,99962.78
2022-07-30T18:07:43.891Z,99966.34
2022-07-30T18:10:26.014Z,99962.25
2022-07-30T18:12:57.876Z,99955.50
2022-07-30T18:15:31.783Z,99952.22
2022-07-30T18:18:07.364Z,99952.50
2022-07-30T18:20:48.392Z,99955.75
2022-07-30T18:23:20.836Z,99949.50
2022-07-30T18:25:54.423Z,99947.91
2022-07-30T18:28:25.592Z,99943.28
2022-07-30T18:30:56.788Z,99944.94
2022-07-30T18:33:27.066Z,99942.50
2022-07-30T18:35:58.503Z,99937.63
2022-07-30T18:38:29.269Z,99936.81
2022-07-30T18:41:00.235Z,99926.00
2022-07-30T18:43:32.197Z,99929.78
2022-07-30T18:46:19.108Z,99935.19
2022-07-30T18:48:53.657Z,99944.38
2022-07-30T18:51:34.880Z,99924.38
2022-07-30T18:54:09.318Z,99923.28
2022-07-30T18:56:47.469Z,99918.94
2022-07-30T18:59:18.357Z,99914.06
2022-07-30T19:01:50.245Z,99910.31
2022-07-30T19:04:20.939Z,99917.34
2022-07-30T19:06:52.019Z,99915.72
2022-07-30T19:09:41.981Z,99908.69
2022-07-30T19:12:13.413Z,99908.41
2022-07-30T19:14:48.347Z,99898.97
2022-07-30T19:17:19.331Z,99903.56
2022-07-30T19:19:53.765Z,99892.75
2022-07-30T19:22:30.024Z,99897.31
2022-07-30T19:25:01.247Z,99895.72
2022-07-30T19:27:31.989Z,99897.91
2022-07-30T19:30:06.303Z,99900.03
2022-07-30T19:32:40.210Z,99893.03
2022-07-30T19:35:14.469Z,99902.22
2022-07-30T19:37:45.868Z,99906.81
2022-07-30T19:40:16.894Z,99911.44
2022-07-30T19:42:50.595Z,99904.66
2022-07-30T19:45:27.133Z,99901.16
2022-07-30T19:48:28.399Z,99900.03
2022-07-30T19:51:01.499Z,99888.94
2022-07-30T19:53:34.024Z,99893.03
2022-07-30T19:56:08.249Z,99902.22
2022-07-30T19:58:43.188Z,99899.78
2022-07-30T20:01:17.155Z,99897.91
2022-07-30T20:03:49.806Z,99894.38
2022-07-30T20:06:20.851Z,99905.50
2022-07-30T20:08:55.402Z,99898.19
2022-07-30T20:11:36.009Z,99895.75
2022-07-30T20:14:10.145Z,99898.44
2022-07-30T20:16:41.565Z,99892.50
2022-07-30T20:19:15.555Z,99888.69
2022-07-30T20:21:56.340Z,99893.31
2022-07-30T20:24:55.076Z,99894.09
2022-07-30T20:27:36.539Z,99891.41
2022-07-30T20:30:11.503Z,99895.22
2022-07-30T20:32:46.986Z,99892.25
2022-07-30T20:38:10.233Z,99895.75
2022-07-30T20:40:44.076Z,99898.19
2022-07-30T20:43:14.973Z,99887.88
2022-07-30T20:45:48.293Z,99891.97
2022-07-30T20:48:25.697Z,99901.44
2022-07-30T20:50:56.408Z,99898.19
2022-07-30T20:53:33.614Z,99900.63
2022-07-30T20:56:07.965Z,99895.22
2022-07-30T20:58:39.014Z,99897.38
2022-07-30T21:01:15.543Z,99886.81
2022-07-30T21:03:49.070Z,99890.88
2022-07-30T21:06:31.081Z,99883.56
2022-07-30T21:09:09.577Z,99890.88
2022-07-30T21:11:50.411Z,99901.16
2022-07-30T21:14:25.987Z,99898.72
2022-07-30T21:16:56.645Z,99895.22
2022-07-30T21:19:29.115Z,99903.31
2022-07-30T21:22:01.070Z,99895.22
2022-07-30T21:24:33.333Z,99889.25
2022-07-30T21:27:04.683Z,99891.97
2022-07-30T21:29:34.872Z,99886.56
2022-07-30T21:32:08.498Z,99887.09
2022-07-30T21:34:40.326Z,99889.53
2022-07-30T21:37:15.445Z,99902.22
2022-07-30T21:39:47.301Z,99903.06
2022-07-30T21:42:18.087Z,99903.88
2022-07-30T21:44:57.333Z,99906.03
2022-07-30T21:47:28.905Z,99895.75
2022-07-30T21:50:02.996Z,99910.66
2022-07-30T21:52:37.604Z,99904.13
2022-07-30T21:55:08.496Z,99901.44
2022-07-30T21:57:44.002Z,99911.72
2022-07-30T22:00:23.930Z,99914.41
2022-07-30T22:03:04.169Z,99903.34
2022-07-30T22:05:49.273Z,99901.69
2022-07-30T22:08:20.334Z,99908.75
2022-07-30T22:10:51.718Z,99903.31
2022-07-30T22:13:22.695Z,99908.75
2022-07-30T22:15:54.465Z,99914.69
2022-07-30T22:18:25.378Z,99912.53
2022-07-30T22:20:57.017Z,99915.47
2022-07-30T22:23:31.007Z,99914.41
2022-07-30T22:26:05.081Z,99920.63
2022-07-30T22:28:36.710Z,99913.06
2022-07-30T22:31:15.012Z,99926.31
2022-07-30T22:33:46.886Z,99915.22
2022-07-30T22:36:24.623Z,99919.28
2022-07-30T22:38:58.731Z,99919.00
2022-07-30T22:41:29.806Z,99926.84
2022-07-30T22:44:01.371Z,99930.91
2022-07-30T22:46:32.044Z,99932.81
2022-07-30T22:49:02.640Z,99940.63
2022-07-30T22:52:01.861Z,99935.22
2022-07-30T22:54:24.210Z,99940.09
2022-07-30T22:56:54.739Z,99933.59
2022-07-30T22:59:57.924Z,99927.94
2022-07-30T23:02:18.852Z,99924.38
2022-07-30T23:04:51.275Z,99936.84
2022-07-30T23:07:29.175Z,99944.44
2022-07-30T23:10:18.184Z,99947.66
2022-07-30T23:12:18.231Z,99886.25
2022-07-30T23:12:53.702Z,99954.16
2022-07-30T23:15:24.815Z,99963.63
2022-07-30T23:17:55.344Z,99962.25
2022-07-30T23:20:26.246Z,99961.72
2022-07-30T23:22:56.419Z,99965.75
2022-07-30T23:25:38.553Z,99963.31
2022-07-30T23:28:09.748Z,99966.59
2022-07-30T23:30:46.785Z,99958.47
2022-07-30T23:33:23.056Z,99963.59
2022-07-30T23:35:54.456Z,99962.78
2022-07-30T23:38:29.462Z,99961.38
2022-07-30T23:41:05.681Z,99962.16
2022-07-30T23:43:36.919Z,99965.41
2022-07-30T23:46:11.006Z,99974.59
2022-07-30T23:48:42.665Z,99971.91
2022-07-30T23:51:13.736Z,99966.72
2022-07-30T23:53:44.971Z,99966.47
2022-07-30T23:56:19.839Z,99964.81
2022-07-30T23:58:50.839Z,99979.72
